Terminal Aerodrome Forecast
Issued by NWS Sioux Falls, SD

Home | Current Version | Previous Version | Text Only | Print | Product List | Glossary On
Versions: 1 2 3 4 5 6 7 8 9 10 11 12 13 14 15 16 17 18 19 20 21 22 23 24 25
000
FTUS43 KFSD 220536
TAFFSD
TAF
KFSD 220536Z 2206/2306 05007KT P6SM BKN200
     FM220800 03007KT P6SM OVC013
      TEMPO 2212/2216 OVC008
     FM230200 08009KT P6SM OVC008=

USA.gov is the U.S. government's official web portal to all federal, state and local government web resources and services.